Time;durP1;ratioP1;P1;durP2;ratioP2;P2;SDS_P1;SDS_P2;PMS_P1;PMS_P2;Temp;Humidity;BMP_temperature;BMP_pressure;BME280_temperature;BME280_humidity;BME280_pressure;Samples;Min_cycle;Max_cycle;Signal;HPM_P1;HPM_P2
2023/06/09 00:01:58;;;;;;;10.63;5.00;;;21.20;54.00;;;;;;4990725;28;20233;-81
2023/06/09 00:04:26;;;;;;;10.77;4.68;;;21.30;54.10;;;;;;4990828;28;20222;-81
2023/06/09 00:06:55;;;;;;;8.85;4.53;;;21.30;54.20;;;;;;4994041;28;20198;-81
2023/06/09 00:09:22;;;;;;;11.10;4.85;;;21.30;54.20;;;;;;5008263;28;20252;-81
2023/06/09 00:11:49;;;;;;;7.97;4.43;;;21.30;54.20;;;;;;5004426;28;20579;-81
2023/06/09 00:14:18;;;;;;;9.20;4.72;;;21.30;54.20;;;;;;4994292;28;20221;-81
2023/06/09 00:16:46;;;;;;;9.10;5.13;;;21.30;54.30;;;;;;4995858;28;20661;-80
2023/06/09 00:19:15;;;;;;;9.80;5.18;;;21.30;54.30;;;;;;4979885;28;20276;-81
2023/06/09 00:21:44;;;;;;;11.48;4.70;;;21.30;54.30;;;;;;4977836;28;20202;-81
2023/06/09 00:24:13;;;;;;;8.32;4.88;;;21.30;54.30;;;;;;4993457;28;20222;-81
2023/06/09 00:26:40;;;;;;;11.70;5.20;;;21.20;54.20;;;;;;4995463;28;20288;-80
2023/06/09 00:29:08;;;;;;;7.18;4.55;;;21.20;54.20;;;;;;4995198;28;20256;-80
2023/06/09 00:31:35;;;;;;;10.23;5.05;;;21.20;54.20;;;;;;4994920;28;20284;-80
2023/06/09 00:34:04;;;;;;;9.73;4.93;;;21.20;54.30;;;;;;4993018;28;20256;-80
2023/06/09 00:36:31;;;;;;;8.00;4.57;;;21.20;54.30;;;;;;4995578;28;20240;-80
2023/06/09 00:38:59;;;;;;;10.88;4.70;;;21.20;54.30;;;;;;4995149;28;20230;-81
2023/06/09 00:41:28;;;;;;;10.10;4.78;;;21.20;54.30;;;;;;4995073;28;20272;-81
2023/06/09 00:43:55;;;;;;;9.98;4.55;;;21.20;54.40;;;;;;4994982;28;20742;-81
2023/06/09 00:46:24;;;;;;;10.40;5.15;;;21.20;54.40;;;;;;4995004;28;20205;-81
2023/06/09 00:48:52;;;;;;;7.68;4.47;;;21.10;54.30;;;;;;4977972;28;20292;-81
2023/06/09 00:51:21;;;;;;;10.85;4.95;;;21.20;54.40;;;;;;4993301;28;20692;-81
2023/06/09 00:53:48;;;;;;;11.32;5.18;;;21.10;54.40;;;;;;4994585;28;20497;-81
2023/06/09 00:56:16;;;;;;;10.75;4.30;;;21.20;54.40;;;;;;4978159;28;20202;-81
2023/06/09 00:58:47;;;;;;;9.80;5.03;;;21.20;54.50;;;;;;4989832;28;20703;-81
2023/06/09 01:01:14;;;;;;;9.68;4.95;;;21.20;54.50;;;;;;4987607;28;20214;-81
2023/06/09 01:03:41;;;;;;;11.80;5.32;;;21.10;54.40;;;;;;4994539;28;20233;-81
2023/06/09 01:06:14;;;;;;;7.25;4.50;;;21.20;54.50;;;;;;4994301;28;20626;-81
2023/06/09 01:08:53;;;;;;;8.30;5.03;;;21.10;54.50;;;;;;4990901;28;20280;-81
2023/06/09 01:11:28;;;;;;;9.10;4.60;;;21.10;54.50;;;;;;4996609;28;20228;-81
2023/06/09 01:14:07;;;;;;;9.65;4.95;;;21.20;54.60;;;;;;4991438;28;20225;-81
2023/06/09 01:16:42;;;;;;;9.23;4.95;;;21.10;54.50;;;;;;4977107;28;20194;-81
2023/06/09 01:19:16;;;;;;;9.55;4.50;;;21.10;54.60;;;;;;4993528;28;20336;-81
2023/06/09 01:21:47;;;;;;;8.95;4.97;;;21.10;54.60;;;;;;4994012;28;20275;-81
2023/06/09 01:24:30;;;;;;;8.20;4.97;;;21.10;54.60;;;;;;4992969;28;20272;-81
2023/06/09 01:27:01;;;;;;;9.23;4.82;;;21.10;54.60;;;;;;4976853;28;20248;-81
2023/06/09 01:29:30;;;;;;;10.23;5.03;;;21.10;54.70;;;;;;4994348;28;20628;-81
2023/06/09 01:31:58;;;;;;;6.63;4.15;;;21.10;54.70;;;;;;4993143;28;20214;-80
2023/06/09 01:34:26;;;;;;;11.57;4.70;;;21.00;54.60;;;;;;4993509;28;20222;-81
2023/06/09 01:36:54;;;;;;;8.77;4.90;;;21.10;54.70;;;;;;4993737;28;20273;-80
2023/06/09 01:39:23;;;;;;;9.25;4.65;;;21.10;54.70;;;;;;4994288;28;20350;-81
2023/06/09 01:41:51;;;;;;;7.70;4.25;;;21.10;54.70;;;;;;4993454;28;20710;-80
2023/06/09 01:44:19;;;;;;;8.55;4.82;;;21.10;54.70;;;;;;4992099;28;20257;-81
2023/06/09 01:46:47;;;;;;;9.75;4.80;;;21.10;54.70;;;;;;4976307;28;20198;-81
2023/06/09 01:49:19;;;;;;;11.10;4.60;;;21.10;54.80;;;;;;4993572;28;20301;-80
2023/06/09 01:51:52;;;;;;;8.68;4.30;;;21.00;54.70;;;;;;4993191;28;20312;-81
2023/06/09 01:54:25;;;;;;;9.57;4.28;;;21.00;54.80;;;;;;4993439;28;20237;-81
2023/06/09 01:56:58;;;;;;;10.57;4.80;;;21.10;54.80;;;;;;4981265;28;20300;-80
2023/06/09 01:59:33;;;;;;;10.93;4.78;;;21.10;54.90;;;;;;4987215;28;20238;-80
2023/06/09 02:02:01;;;;;;;10.10;4.65;;;21.10;54.90;;;;;;4980002;28;20288;-80
2023/06/09 02:04:30;;;;;;;8.50;4.30;;;21.00;54.80;;;;;;4978885;28;20254;-80
2023/06/09 02:06:59;;;;;;;9.82;4.88;;;21.00;54.80;;;;;;4961945;28;20197;-81
2023/06/09 02:09:26;;;;;;;10.20;4.63;;;21.00;54.80;;;;;;4976198;28;20224;-80
2023/06/09 02:11:54;;;;;;;9.18;4.70;;;21.00;54.80;;;;;;4987862;28;20697;-80
2023/06/09 02:14:22;;;;;;;8.98;4.63;;;21.00;54.80;;;;;;4972096;28;20708;-81
2023/06/09 02:16:53;;;;;;;9.43;4.82;;;21.00;54.90;;;;;;4977955;28;20268;-80
2023/06/09 02:19:20;;;;;;;9.15;4.70;;;21.00;54.90;;;;;;4988380;28;20234;-81
2023/06/09 02:21:48;;;;;;;7.72;5.10;;;21.00;54.90;;;;;;4977047;28;20190;-81
2023/06/09 02:24:17;;;;;;;11.35;5.30;;;21.00;54.90;;;;;;4993175;28;20246;-81
2023/06/09 02:26:45;;;;;;;8.98;5.00;;;21.00;54.90;;;;;;4975511;28;20206;-81
2023/06/09 02:29:12;;;;;;;11.00;4.95;;;21.00;54.90;;;;;;4963675;28;20589;-81
2023/06/09 02:31:39;;;;;;;9.27;4.63;;;21.00;54.90;;;;;;4973675;28;20309;-81
2023/06/09 02:34:08;;;;;;;10.55;4.85;;;21.00;55.00;;;;;;4973289;28;20219;-81
2023/06/09 02:36:37;;;;;;;12.18;5.07;;;21.00;55.00;;;;;;4974390;28;20191;-81
2023/06/09 02:39:05;;;;;;;9.50;4.82;;;21.00;55.00;;;;;;4956615;28;20248;-81
2023/06/09 02:41:32;;;;;;;9.27;4.85;;;20.90;54.90;;;;;;4973458;28;20207;-81
2023/06/09 02:44:00;;;;;;;11.00;4.60;;;21.00;55.10;;;;;;4972834;28;20215;-81
2023/06/09 02:46:29;;;;;;;8.82;4.80;;;21.00;55.00;;;;;;4972911;28;20258;-81
2023/06/09 02:48:57;;;;;;;9.82;5.07;;;20.90;55.00;;;;;;4992691;28;20591;-81
2023/06/09 02:51:26;;;;;;;10.27;4.70;;;20.90;55.00;;;;;;4975660;28;20693;-81
2023/06/09 02:53:54;;;;;;;9.02;4.65;;;20.90;55.00;;;;;;4976817;28;20258;-81
2023/06/09 02:56:21;;;;;;;13.23;4.85;;;20.90;55.00;;;;;;4992554;28;20738;-81
2023/06/09 02:58:50;;;;;;;12.20;5.30;;;20.90;55.00;;;;;;4958259;28;20282;-81
2023/06/09 03:01:17;;;;;;;10.35;4.53;;;20.90;55.10;;;;;;4973702;28;20633;-81
2023/06/09 03:03:46;;;;;;;10.90;4.78;;;20.90;55.10;;;;;;4964661;28;20214;-81
2023/06/09 03:06:14;;;;;;;11.57;5.18;;;20.90;55.10;;;;;;4956177;28;20463;-81
2023/06/09 03:08:44;;;;;;;9.38;4.80;;;20.90;55.10;;;;;;4989025;28;20738;-81
2023/06/09 03:11:12;;;;;;;10.80;5.10;;;20.90;55.10;;;;;;4975133;28;20214;-81
2023/06/09 03:13:39;;;;;;;13.75;4.82;;;20.90;55.10;;;;;;4975016;28;20312;-80
2023/06/09 03:16:06;;;;;;;9.05;4.57;;;20.90;55.10;;;;;;4972846;28;20431;-79
2023/06/09 03:18:33;;;;;;;10.85;4.85;;;20.90;55.10;;;;;;4982342;28;20280;-81
2023/06/09 03:21:04;;;;;;;10.77;5.20;;;20.90;55.10;;;;;;4955942;28;20225;-80
2023/06/09 03:23:31;;;;;;;10.32;5.03;;;20.90;55.10;;;;;;4987225;28;20579;-80
2023/06/09 03:26:02;;;;;;;10.13;5.65;;;20.90;55.10;;;;;;4984727;28;20266;-80
2023/06/09 03:28:29;;;;;;;11.02;4.90;;;20.90;55.10;;;;;;4972601;28;20709;-80
2023/06/09 03:30:56;;;;;;;10.85;5.00;;;20.80;55.10;;;;;;4955955;28;20233;-80
2023/06/09 03:33:24;;;;;;;10.43;4.93;;;20.90;55.20;;;;;;4972858;28;20620;-80
2023/06/09 03:35:52;;;;;;;10.07;4.82;;;20.90;55.20;;;;;;4972838;28;20863;-80
2023/06/09 03:38:21;;;;;;;8.57;4.88;;;20.90;55.20;;;;;;4972792;28;20273;-81
2023/06/09 03:40:48;;;;;;;11.68;4.93;;;20.90;55.30;;;;;;4956622;28;20575;-80
2023/06/09 03:43:17;;;;;;;9.70;4.88;;;20.90;55.30;;;;;;4985783;28;20422;-80
2023/06/09 03:45:44;;;;;;;11.68;5.53;;;20.90;55.30;;;;;;4990515;28;20624;-80
2023/06/09 03:48:11;;;;;;;9.75;4.78;;;20.80;55.20;;;;;;4986468;28;20629;-80
2023/06/09 03:50:40;;;;;;;10.50;5.35;;;20.90;55.30;;;;;;4996244;28;20299;-80
2023/06/09 03:53:09;;;;;;;9.93;4.10;;;20.90;55.40;;;;;;4987253;28;20222;-80
2023/06/09 03:55:38;;;;;;;11.70;5.22;;;20.80;55.20;;;;;;4973234;28;20802;-80
2023/06/09 03:58:08;;;;;;;10.57;4.85;;;20.80;55.30;;;;;;4977866;28;20222;-80
2023/06/09 04:00:45;;;;;;;10.38;4.93;;;20.80;55.30;;;;;;4977995;28;20209;-80
2023/06/09 04:03:13;;;;;;;12.02;4.78;;;20.80;55.30;;;;;;4992378;28;21163;-80
2023/06/09 04:05:40;;;;;;;9.82;5.00;;;20.80;55.30;;;;;;4995731;28;20621;-80
2023/06/09 04:08:09;;;;;;;8.40;4.75;;;20.80;55.30;;;;;;4980706;28;20309;-80
2023/06/09 04:10:36;;;;;;;11.95;5.93;;;20.80;55.30;;;;;;5030367;28;20280;-80
2023/06/09 04:13:03;;;;;;;9.75;5.00;;;20.80;55.40;;;;;;5007540;28;20232;-80
2023/06/09 04:15:31;;;;;;;11.05;5.43;;;20.80;55.40;;;;;;4992430;28;20253;-80
2023/06/09 04:18:01;;;;;;;8.23;4.90;;;20.80;55.40;;;;;;4978252;28;20260;-80
2023/06/09 04:20:29;;;;;;;11.43;5.70;;;20.80;55.40;;;;;;4995472;28;20660;-79
2023/06/09 04:22:56;;;;;;;12.60;5.55;;;20.70;55.30;;;;;;4995835;28;20292;-81
2023/06/09 04:25:25;;;;;;;11.15;5.07;;;20.80;55.40;;;;;;4977686;28;20194;-81
2023/06/09 04:27:53;;;;;;;8.18;5.03;;;20.80;55.40;;;;;;4995648;28;20194;-81
2023/06/09 04:30:25;;;;;;;12.18;5.55;;;20.70;55.40;;;;;;4995347;28;20237;-81
2023/06/09 04:32:52;;;;;;;10.98;5.32;;;20.80;55.50;;;;;;4995281;28;20802;-81
2023/06/09 04:35:36;;;;;;;9.65;5.35;;;20.80;55.50;;;;;;4995253;28;20206;-81
2023/06/09 04:38:03;;;;;;;13.23;5.45;;;20.80;55.50;;;;;;4994799;28;20220;-81
2023/06/09 04:40:31;;;;;;;10.07;5.85;;;20.70;55.40;;;;;;4995193;28;20194;-81
2023/06/09 04:43:01;;;;;;;13.05;5.60;;;20.80;55.50;;;;;;4995314;28;20232;-81
2023/06/09 04:45:33;;;;;;;10.52;5.43;;;20.70;55.50;;;;;;4993711;28;20344;-81
2023/06/09 04:48:02;;;;;;;10.75;5.57;;;20.70;55.50;;;;;;4994717;28;20201;-81
2023/06/09 04:50:32;;;;;;;11.57;5.43;;;20.70;55.50;;;;;;4977515;28;20209;-81
2023/06/09 04:53:03;;;;;;;14.52;5.50;;;20.70;55.50;;;;;;4994754;28;20265;-81
2023/06/09 04:55:32;;;;;;;9.68;5.57;;;20.70;55.50;;;;;;4992807;28;20276;-81
2023/06/09 04:58:06;;;;;;;12.70;5.80;;;20.70;55.50;;;;;;4994709;28;20210;-81
2023/06/09 05:00:35;;;;;;;9.77;5.40;;;20.70;55.50;;;;;;4977237;28;20290;-81
2023/06/09 05:03:02;;;;;;;10.25;5.55;;;20.70;55.50;;;;;;4994866;28;20233;-81
2023/06/09 05:05:30;;;;;;;11.23;5.32;;;20.70;55.60;;;;;;4992764;28;20581;-81
2023/06/09 05:07:57;;;;;;;10.25;5.40;;;20.70;55.60;;;;;;4995683;28;20280;-81
2023/06/09 05:10:26;;;;;;;10.70;5.50;;;20.70;55.60;;;;;;5013417;28;20683;-81
2023/06/09 05:12:53;;;;;;;10.30;4.82;;;20.70;55.60;;;;;;4993133;28;20243;-81
2023/06/09 05:15:21;;;;;;;11.75;5.25;;;20.70;55.70;;;;;;4993719;28;20692;-81
2023/06/09 05:17:49;;;;;;;11.98;5.28;;;20.70;55.60;;;;;;4974733;28;20746;-81
2023/06/09 05:20:24;;;;;;;11.73;5.72;;;20.70;55.60;;;;;;4977288;28;20308;-81
2023/06/09 05:22:51;;;;;;;14.35;5.75;;;20.70;55.60;;;;;;4992323;28;20197;-81
2023/06/09 05:25:20;;;;;;;10.82;5.78;;;20.70;55.70;;;;;;4976957;28;20283;-81
2023/06/09 05:27:50;;;;;;;11.45;5.70;;;20.70;55.70;;;;;;4994178;28;20190;-81
2023/06/09 05:30:17;;;;;;;10.02;5.43;;;20.70;55.70;;;;;;4993770;28;20647;-81
2023/06/09 05:32:45;;;;;;;12.93;5.90;;;20.70;55.70;;;;;;4994163;28;20714;-81
2023/06/09 05:35:12;;;;;;;11.60;5.40;;;20.70;55.70;;;;;;4994400;28;20280;-81
2023/06/09 05:37:50;;;;;;;9.82;5.03;;;20.70;55.70;;;;;;4994492;28;20230;-81
2023/06/09 05:40:17;;;;;;;12.38;5.90;;;20.70;55.90;;;;;;4976800;28;20221;-81
2023/06/09 05:42:44;;;;;;;11.02;5.93;;;20.70;55.80;;;;;;4994019;28;20252;-81
2023/06/09 05:45:13;;;;;;;11.35;5.88;;;20.70;55.90;;;;;;4993810;28;20245;-81
2023/06/09 05:47:42;;;;;;;11.57;6.22;;;20.60;55.70;;;;;;4993679;28;20186;-81
2023/06/09 05:50:10;;;;;;;10.95;5.57;;;20.70;55.80;;;;;;4971334;28;20297;-81
2023/06/09 05:52:39;;;;;;;12.48;5.95;;;20.70;55.80;;;;;;4991394;28;20233;-81
2023/06/09 05:55:06;;;;;;;10.10;6.07;;;20.70;55.90;;;;;;4976268;28;20308;-81
2023/06/09 05:57:34;;;;;;;12.57;5.90;;;20.60;55.80;;;;;;4993342;28;20205;-81
2023/06/09 06:00:07;;;;;;;12.77;6.03;;;20.70;55.90;;;;;;4993175;28;20646;-81
2023/06/09 06:02:35;;;;;;;10.35;5.68;;;20.70;55.90;;;;;;4993712;28;20289;-81
2023/06/09 06:05:03;;;;;;;12.75;5.55;;;20.70;55.90;;;;;;4987960;28;20257;-81
2023/06/09 06:07:30;;;;;;;13.73;6.10;;;20.70;56.70;;;;;;4992180;28;20277;-81
2023/06/09 06:10:02;;;;;;;9.70;5.40;;;20.70;56.00;;;;;;4993289;28;20249;-82
2023/06/09 06:12:36;;;;;;;10.10;5.97;;;20.60;55.90;;;;;;4993252;28;20234;-81
2023/06/09 06:32:25;;;;;;;8.45;5.00;;;20.60;56.00;;;;;;4971002;28;20578;-82
2023/06/09 06:35:02;;;;;;;10.70;5.10;;;20.60;56.10;;;;;;4970173;28;20221;-80
2023/06/09 09:14:24;;;;;;;11.85;5.82;;;21.80;57.10;;;;;;4671000;30;20235;-80
2023/06/09 10:19:27;;;;;;;15.20;6.55;;;22.10;57.60;;;;;;4637313;30;20777;-87
2023/06/09 10:22:30;;;;;;;15.93;6.57;;;22.10;57.40;;;;;;4643067;30;20663;-79
2023/06/09 13:27:30;;;;;;;16.58;7.35;;;22.60;58.00;;;;;;4712539;30;20919;-78
2023/06/09 13:33:45;;;;;;;12.50;7.25;;;22.70;57.80;;;;;;4708605;30;20330;-77
2023/06/09 13:36:14;;;;;;;11.75;7.45;;;22.70;57.80;;;;;;4707233;30;20241;-78
2023/06/09 13:38:42;;;;;;;17.85;8.73;;;22.80;58.00;;;;;;4709182;30;20224;-79
2023/06/09 13:41:10;;;;;;;15.93;8.73;;;22.80;58.00;;;;;;4706538;30;20659;-77
2023/06/09 13:43:39;;;;;;;16.88;8.75;;;22.80;57.90;;;;;;4708764;30;20376;-78
2023/06/09 14:23:48;;;;;;;13.43;8.52;;;23.30;57.80;;;;;;4674124;30;20241;-77
2023/06/09 14:26:17;;;;;;;14.50;8.38;;;23.30;57.90;;;;;;4666365;30;20242;-79
2023/06/09 14:34:09;;;;;;;14.45;8.63;;;23.30;57.70;;;;;;4730425;30;20653;-79
2023/06/09 14:36:38;;;;;;;20.63;8.30;;;23.30;57.60;;;;;;4734190;30;20330;-78
2023/06/09 14:39:11;;;;;;;16.65;8.35;;;23.30;57.50;;;;;;4723961;30;20813;-80
2023/06/09 14:41:39;;;;;;;13.75;8.45;;;23.30;57.50;;;;;;4758020;30;20238;-84
2023/06/09 14:44:07;;;;;;;17.35;8.23;;;23.30;57.50;;;;;;4757322;30;20223;-78
2023/06/09 15:07:22;;;;;;;16.63;8.40;;;23.50;57.50;;;;;;4809050;29;20216;-77
2023/06/09 15:09:55;;;;;;;17.23;8.77;;;23.70;57.20;;;;;;4778636;29;20292;-80
2023/06/09 15:15:04;;;;;;;19.85;8.00;;;23.80;56.90;;;;;;4776548;29;20249;-83
2023/06/09 15:32:29;;;;;;;15.13;8.23;;;23.90;56.80;;;;;;4774155;29;20238;-80
2023/06/09 15:35:00;;;;;;;20.10;7.60;;;23.90;56.70;;;;;;4769935;29;20698;-82
2023/06/09 15:37:31;;;;;;;15.93;7.97;;;23.90;56.60;;;;;;4782916;29;20360;-79
2023/06/09 15:40:01;;;;;;;14.10;8.25;;;23.90;56.60;;;;;;4801469;29;20218;-81
2023/06/09 15:45:19;;;;;;;18.23;8.93;;;23.90;56.60;;;;;;4787017;29;20651;-81
2023/06/09 16:06:18;;;;;;;15.38;8.63;;;23.80;56.80;;;;;;4822146;29;20715;-80
2023/06/09 16:08:45;;;;;;;17.05;9.02;;;23.80;56.80;;;;;;4812469;29;20295;-81
2023/06/09 16:11:14;;;;;;;18.65;8.85;;;23.80;56.80;;;;;;4833073;29;20378;-84
2023/06/09 16:17:54;;;;;;;16.02;8.05;;;23.70;57.00;;;;;;4840931;29;20254;-80
